Aviation Digital Data Service (ADDS)

Output produced by METARs form (1825 UTC 16 August 2018)
found at http://www.aviationweather.gov/adds/metars/
 
KTCC 161727Z 1618/1718 23010KT P6SM SCT130 
     FM170100 29012KT P6SM VCTS SCT120 BKN180CB 
     FM170600 01006KT P6SM VCSH BKN150 
     FM170900 VRB03KT P6SM SCT150 
     FM171400 04005KT P6SM BKN150
       
KTCL 161732Z 1618/1718 19006KT P6SM FEW050 SCT250 
     FM170100 18002KT P6SM FEW050 SCT250 
     FM170600 20006KT P6SM BKN250
       
TAF AMD KTCM 161524Z 1615/1719 VRB06KT 6000 FU BKN008 QNH3002INS 
     TEMPO 1615/1619 BKN010 
     BECMG 1618/1619 25009KT 8000 FU SKC QNH3003INS 
     BECMG 1620/1621 25009KT 9999 NSW SKC QNH3005INS 
     BECMG 1701/1702 24012KT 9999 SKC QNH3004INS 
     BECMG 1708/1709 VRB06KT 9999 BKN010 QNH3010INS TX23/1623Z TN14/1712Z
       
KTCS 161739Z 1618/1718 15007KT P6SM FEW080 SCT140 BKN250 
     FM162100 23011KT P6SM VCTS SCT080CB BKN140 BKN200 
     FM170900 32007KT P6SM SCT070 BKN110 BKN200 
     FM171600 15006KT P6SM FEW070 SCT110 BKN250
       
KTEB 161722Z 1618/1724 28009G15KT P6SM FEW050 SCT200 
     FM170000 24005KT P6SM FEW050 SCT200 
     FM170200 VRB03KT P6SM FEW050 SCT200 
     FM171400 20008KT P6SM FEW050 SCT150 
     FM171500 20011KT P6SM FEW050 SCT150 SCT250 
     FM171700 21012G20KT P6SM SCT050 SCT150 BKN250
       
KTEX 161740Z 1618/1718 26006G18KT P6SM VCTS SCT050CB BKN150 
     TEMPO 1618/1622 VRB15G30KT -TSRA BKN050CB 
     FM170000 22005KT P6SM VCTS SCT060CB BKN100 
     FM170400 VRB04KT P6SM SCT060 BKN150
       
TAF KTIK 161700Z 1617/1723 20012KT 9999 SCT040 BKN100 QNH2986INS 
     TEMPO 1621/1623 VRB20G30KT 4800 -TSRA BKN030CB 
     BECMG 1700/1701 17009KT 9999 SCT100 QNH2993INS TX31/1621Z TN22/1712Z
       
KTIX 161720Z 1618/1718 12008KT P6SM SCT030 
     FM170300 17003KT P6SM SCT250 
     FM171400 14008KT P6SM FEW030
       
KTLH 161732Z 1618/1718 20006KT P6SM SCT030 
     FM162000 18006KT P6SM VCTS BKN035CB 
     FM162300 VRB03KT P6SM SCT035 SCT250 
     FM171500 18007KT P6SM SCT030 OVC120
       
KTMB 161732Z 1618/1718 11012KT P6SM SCT030 
     FM170100 10005KT P6SM SKC 
     FM171400 11012KT P6SM SCT035
       
KTOI 161732Z 1618/1718 20007KT P6SM SHRA VCTS BKN050CB 
     TEMPO 1618/1621 20010G18KT 4SM TSRA BKN050CB 
     FM170200 18003KT P6SM OVC250 
     FM170600 16002KT 4SM BR BKN003 
     FM171500 20004KT P6SM BKN050
       
KTOL 161720Z 1618/1718 19005KT 2SM -SHRA BR BKN009 OVC025 
     TEMPO 1618/1621 1SM -RA BR BKN005 
     FM162100 20006KT 5SM BR VCSH OVC010 
     FM170400 22004KT 2SM BR OVC006 
     TEMPO 1709/1713 1/2SM FG OVC004 
     FM171500 23005KT 5SM BR OVC007
       
KTOP 161738Z 1618/1718 VRB03KT P6SM FEW040 SCT110 
     FM162000 27005KT P6SM SCT045 BKN100 
     TEMPO 1620/1623 5SM TSRA BKN025CB BKN100 
     FM162300 32005KT P6SM VCTS SCT035CB BKN090 
     FM170200 VRB03KT P6SM SCT015 BKN100 
     FM170900 VRB03KT P6SM BKN010 
     FM171500 35005KT P6SM FEW010
       
KTPA 161730Z 1618/1724 17006KT P6SM VCTS SCT035CB SCT050 BKN250 
     FM162000 24007KT P6SM VCTS SCT040CB BKN060 BKN250 
     FM170100 VRB03KT P6SM FEW040 SCT120 BKN250 
     FM171400 15006KT P6SM SCT025 SCT250 
     FM171800 23006KT P6SM VCTS SCT035CB BKN060
       
KTPH 161720Z 1618/1718 18008KT P6SM SCT120 
     FM162200 20010G18KT P6SM SCT120 
     TEMPO 1700/1702 VRB15G30KT -TSRA BKN120CB 
     FM170400 36006KT P6SM SCT120
       
KTRI 161744Z 1618/1718 23006KT P6SM FEW060 SCT250 
     FM170100 00000KT P6SM BKN150 
     FM170700 00000KT 5SM BR BKN250 
     FM170900 00000KT 3SM BR BKN250 
     FM171400 26005KT P6SM VCSH BKN150
       
KTRK 161754Z 1618/1718 VRB03KT P6SM FEW090 
     FM162100 23011KT P6SM FEW090 
     FM170300 VRB03KT P6SM SKC
       
KTRM 161740Z 1618/1718 13010G17KT P6SM SCT100 
     FM170100 14009KT P6SM SCT100 
     FM170500 VRB05KT P6SM SCT100
       
KTTD 161732Z 1618/1718 00000KT P6SM BKN015 
     FM161900 28004KT P6SM SCT250 
     FM171100 00000KT P6SM OVC020
       
KTTN 161720Z 1618/1718 27006KT P6SM SCT200 
     FM171200 18005KT P6SM BKN150 
     FM171600 21008KT P6SM BKN150
       
KTUL 161720Z 1618/1718 18007KT P6SM SCT050 SCT250 
     FM162300 17007KT P6SM VCTS BKN050CB 
     TEMPO 1623/1701 4SM TSRA BKN035CB 
     FM170300 17006KT P6SM BKN100 
     PROB30 1704/1710 4SM TSRA BKN035CB 
     FM171200 22004KT P6SM SCT100 BKN250
       
KTUP 161739Z 1618/1718 18007KT P6SM SCT050 BKN250 
     FM162100 20008KT P6SM VCTS SCT050CB BKN250 
     FM170100 18005KT P6SM SCT050 BKN250 
     FM171300 22005KT P6SM VCSH BKN040 OVC100
       
KTUS 161730Z 1618/1718 30007KT P6SM SCT100 BKN150 
     FM162000 30009KT P6SM VCTS SCT070CB BKN120 
     TEMPO 1622/1624 VRB15G30KT -TSRA SCT060CB OVC100 
     FM170000 24007KT P6SM SCT090 OVC180 
     FM170300 15006KT P6SM BKN200
       
KTVC 161720Z 1618/1718 02005KT P6SM BKN030 BKN110 
     FM162000 02007KT P6SM BKN035 BKN100 
     FM170200 VRB03KT P6SM SCT250 
     FM171400 01005KT P6SM SCT120
       
KTVL 161754Z 1618/1718 03007KT P6SM FEW080 
     FM162200 19008KT P6SM FEW080 
     FM170300 VRB03KT P6SM SKC
       
KTWF 161736Z 1618/1718 VRB06KT P6SM BKN200 
     FM162100 32008KT P6SM VCTS SCT120CB BKN200 
     TEMPO 1622/1702 20020G30KT 
     FM170300 19011KT P6SM BKN100
       
KTXK 161745Z 1618/1718 23009KT P6SM FEW050 SCT250 
     FM170100 18004KT P6SM BKN250 
     FM171500 24008KT P6SM SCT040 BKN250
       
KTYR 161745Z 1618/1718 20010KT P6SM FEW045 SCT250 
     FM170100 18007KT P6SM FEW250 
     FM171500 22009KT P6SM SCT040 BKN250
       
KTYS 161744Z 1618/1718 23008KT P6SM FEW060 SCT250 
     FM170100 22003KT P6SM FEW050 BKN150 
     FM170900 23004KT 5SM BR BKN150 
     FM171300 23007KT P6SM VCSH BKN100